Time;durP1;ratioP1;P1;durP2;ratioP2;P2;SDS_P1;SDS_P2;PMS_P1;PMS_P2;Temp;Humidity;BMP_temperature;BMP_pressure;BME280_temperature;BME280_humidity;BME280_pressure;Samples;Min_cycle;Max_cycle;Signal;HPM_P1;HPM_P2
2021/12/26 00:00:48;;;;;;;4.65;3.00;;;;;;;;;;5027639;28;20086;-57
2021/12/26 00:03:14;;;;;;;4.45;3.10;;;;;;;;;;5025420;28;20512;-59
2021/12/26 00:05:39;;;;;;;5.82;3.08;;;;;;;;;;5025873;28;20060;-59
2021/12/26 00:08:05;;;;;;;3.30;2.72;;;;;;;;;;5026678;28;20022;-57
2021/12/26 00:10:30;;;;;;;4.22;2.90;;;;;;;;;;5027408;28;20037;-55
2021/12/26 00:12:57;;;;;;;4.55;3.15;;;;;;;;;;5026447;28;20489;-58
2021/12/26 00:15:23;;;;;;;3.35;2.65;;;;;;;;;;5025816;28;20025;-59
2021/12/26 00:17:49;;;;;;;4.43;2.88;;;;;;;;;;5026777;28;20391;-57
2021/12/26 00:20:16;;;;;;;3.58;2.60;;;;;;;;;;5005837;28;20608;-60
2021/12/26 00:22:42;;;;;;;4.05;2.70;;;;;;;;;;5027226;28;20033;-59
2021/12/26 00:25:09;;;;;;;3.85;2.88;;;;;;;;;;5026242;28;20124;-60
2021/12/26 00:27:35;;;;;;;4.35;2.78;;;;;;;;;;5027297;28;20864;-58
2021/12/26 00:30:02;;;;;;;3.80;3.05;;;;;;;;;;5025561;28;20448;-57
2021/12/26 00:32:27;;;;;;;3.53;2.60;;;;;;;;;;5027287;28;20432;-55
2021/12/26 00:34:52;;;;;;;4.25;3.20;;;;;;;;;;5026018;28;20029;-58
2021/12/26 00:37:18;;;;;;;4.80;3.10;;;;;;;;;;5027291;28;20037;-60
2021/12/26 00:39:44;;;;;;;5.45;3.25;;;;;;;;;;5026239;28;20457;-57
2021/12/26 00:42:10;;;;;;;3.70;3.25;;;;;;;;;;5024749;28;20022;-57
2021/12/26 00:44:39;;;;;;;4.72;3.00;;;;;;;;;;5010331;28;20033;-55
2021/12/26 00:47:07;;;;;;;3.35;2.97;;;;;;;;;;5024780;28;20441;-58
2021/12/26 00:49:33;;;;;;;3.45;2.78;;;;;;;;;;5026726;28;20033;-60
2021/12/26 00:51:58;;;;;;;3.58;2.72;;;;;;;;;;5027122;28;20515;-60
2021/12/26 00:54:23;;;;;;;4.72;3.22;;;;;;;;;;5026017;28;20024;-54
2021/12/26 00:56:49;;;;;;;4.50;3.17;;;;;;;;;;5027861;28;20048;-56
2021/12/26 00:59:14;;;;;;;4.22;2.80;;;;;;;;;;5025768;28;20025;-60
2021/12/26 01:01:40;;;;;;;3.80;2.78;;;;;;;;;;5008691;28;20037;-61
2021/12/26 01:04:05;;;;;;;5.25;3.13;;;;;;;;;;5026020;28;20029;-57
2021/12/26 01:06:31;;;;;;;5.47;3.38;;;;;;;;;;5025028;28;20033;-59
2021/12/26 01:08:56;;;;;;;4.70;3.22;;;;;;;;;;5024976;28;20092;-60
2021/12/26 01:11:36;;;;;;;6.00;3.33;;;;;;;;;;5024567;28;20033;-59
2021/12/26 01:14:05;;;;;;;5.18;2.95;;;;;;;;;;5022817;28;20017;-58
2021/12/26 01:16:31;;;;;;;5.28;3.50;;;;;;;;;;5027148;28;20559;-59
2021/12/26 01:19:03;;;;;;;5.22;3.30;;;;;;;;;;5025143;28;20021;-60
2021/12/26 01:21:29;;;;;;;4.35;3.40;;;;;;;;;;5025534;28;20055;-59
2021/12/26 01:24:01;;;;;;;4.22;3.10;;;;;;;;;;5025278;28;20033;-58
2021/12/26 01:26:28;;;;;;;5.70;3.20;;;;;;;;;;5025436;28;20469;-58
2021/12/26 01:28:53;;;;;;;5.72;3.28;;;;;;;;;;5024777;28;20029;-59
2021/12/26 01:31:20;;;;;;;4.88;3.30;;;;;;;;;;5023961;28;20076;-56
2021/12/26 01:33:52;;;;;;;5.18;3.13;;;;;;;;;;5025165;28;20037;-59
2021/12/26 01:36:18;;;;;;;5.43;3.25;;;;;;;;;;5025016;28;20079;-57
2021/12/26 01:38:44;;;;;;;4.30;3.40;;;;;;;;;;5007296;28;20065;-60
2021/12/26 01:41:10;;;;;;;5.03;3.30;;;;;;;;;;5024347;28;20064;-57
2021/12/26 01:43:40;;;;;;;4.63;3.45;;;;;;;;;;5005160;28;20509;-59
2021/12/26 01:46:06;;;;;;;4.55;3.30;;;;;;;;;;5023735;28;20465;-58
2021/12/26 01:48:32;;;;;;;4.88;3.80;;;;;;;;;;5021910;28;20087;-60
2021/12/26 01:50:58;;;;;;;5.00;3.45;;;;;;;;;;5007523;28;20492;-57
2021/12/26 01:53:34;;;;;;;4.53;3.60;;;;;;;;;;5007270;28;20112;-60
2021/12/26 01:56:00;;;;;;;4.18;3.40;;;;;;;;;;5025305;28;21046;-58
2021/12/26 01:58:29;;;;;;;5.72;3.75;;;;;;;;;;5023568;28;20091;-59
2021/12/26 02:01:00;;;;;;;6.55;3.70;;;;;;;;;;5025077;28;20041;-59
2021/12/26 02:03:26;;;;;;;4.93;3.60;;;;;;;;;;5024439;28;20386;-59
2021/12/26 02:05:51;;;;;;;6.47;3.53;;;;;;;;;;5023679;28;20028;-57
2021/12/26 02:08:17;;;;;;;4.97;3.63;;;;;;;;;;5023556;28;20452;-59
2021/12/26 02:10:43;;;;;;;5.93;3.80;;;;;;;;;;5022476;28;20030;-58
2021/12/26 02:13:08;;;;;;;4.65;3.60;;;;;;;;;;5023859;28;20024;-56
2021/12/26 02:15:34;;;;;;;5.65;3.30;;;;;;;;;;5023561;28;20032;-54
2021/12/26 02:18:00;;;;;;;5.65;3.80;;;;;;;;;;5006965;28;20098;-58
2021/12/26 02:23:23;;;;;;;5.28;3.60;;;;;;;;;;4975337;28;20033;-58
2021/12/26 02:28:26;;;;;;;4.63;3.75;;;;;;;;;;5023718;28;20426;-59
2021/12/26 02:30:53;;;;;;;5.25;3.63;;;;;;;;;;5022606;28;20034;-59
2021/12/26 02:33:19;;;;;;;5.35;3.90;;;;;;;;;;5023287;28;20125;-55
2021/12/26 02:35:47;;;;;;;7.15;4.28;;;;;;;;;;5002466;28;20112;-58
2021/12/26 02:38:13;;;;;;;5.40;3.80;;;;;;;;;;5021441;28;20151;-59
2021/12/26 02:40:42;;;;;;;6.50;4.35;;;;;;;;;;5021769;28;20155;-56
2021/12/26 02:43:08;;;;;;;6.03;3.85;;;;;;;;;;5020351;28;20079;-58
2021/12/26 02:45:35;;;;;;;5.28;3.55;;;;;;;;;;5020322;28;20106;-58
2021/12/26 02:48:02;;;;;;;5.70;4.30;;;;;;;;;;5019858;28;20091;-57
2021/12/26 02:50:31;;;;;;;6.60;4.53;;;;;;;;;;5019200;28;20039;-56
2021/12/26 02:52:59;;;;;;;7.70;4.30;;;;;;;;;;5020497;28;20041;-58
2021/12/26 02:55:25;;;;;;;8.38;4.47;;;;;;;;;;5021324;28;20524;-57
2021/12/26 02:57:54;;;;;;;6.40;4.63;;;;;;;;;;5003487;28;20037;-58
2021/12/26 03:00:23;;;;;;;5.78;4.18;;;;;;;;;;5020533;28;20028;-59
2021/12/26 03:02:52;;;;;;;7.82;4.40;;;;;;;;;;5021767;28;20109;-58
2021/12/26 03:05:19;;;;;;;6.75;4.55;;;;;;;;;;5035975;28;20025;-58
2021/12/26 03:07:46;;;;;;;6.63;4.60;;;;;;;;;;5021944;28;20079;-57
2021/12/26 03:10:21;;;;;;;6.82;4.50;;;;;;;;;;5025023;28;20060;-59
2021/12/26 03:12:48;;;;;;;6.10;4.40;;;;;;;;;;5023054;28;20045;-56
2021/12/26 03:15:13;;;;;;;6.38;4.35;;;;;;;;;;5024068;28;20583;-58
2021/12/26 03:17:39;;;;;;;5.72;4.20;;;;;;;;;;5023620;28;20072;-58
2021/12/26 03:20:09;;;;;;;6.55;4.25;;;;;;;;;;5023437;28;20098;-61
2021/12/26 03:22:34;;;;;;;6.63;4.78;;;;;;;;;;5023356;28;20563;-57
2021/12/26 03:25:00;;;;;;;9.82;5.00;;;;;;;;;;5022965;28;20030;-60
2021/12/26 03:27:25;;;;;;;6.07;4.57;;;;;;;;;;5022233;28;20122;-58
2021/12/26 03:29:51;;;;;;;6.32;4.70;;;;;;;;;;5006402;28;20034;-58
2021/12/26 03:32:16;;;;;;;7.53;4.60;;;;;;;;;;5022225;28;21097;-59
2021/12/26 03:34:49;;;;;;;6.43;4.38;;;;;;;;;;5023224;28;20291;-58
2021/12/26 03:37:15;;;;;;;7.93;4.90;;;;;;;;;;5021869;28;20132;-57
2021/12/26 03:39:40;;;;;;;5.07;3.92;;;;;;;;;;5023035;28;20026;-58
2021/12/26 03:42:06;;;;;;;6.28;4.57;;;;;;;;;;5021817;28;20026;-56
2021/12/26 03:44:32;;;;;;;6.15;4.50;;;;;;;;;;5024234;28;20049;-59
2021/12/26 03:46:57;;;;;;;7.25;4.40;;;;;;;;;;5023198;28;20068;-56
2021/12/26 03:49:23;;;;;;;6.85;4.47;;;;;;;;;;5023238;28;20515;-58
2021/12/26 03:51:48;;;;;;;6.25;4.30;;;;;;;;;;5022659;28;20158;-58
2021/12/26 03:54:14;;;;;;;6.65;4.30;;;;;;;;;;5022415;28;20089;-58
2021/12/26 03:56:39;;;;;;;6.32;4.18;;;;;;;;;;5020226;28;20055;-59
2021/12/26 03:59:05;;;;;;;5.22;4.07;;;;;;;;;;5024474;28;20037;-59
2021/12/26 04:01:30;;;;;;;9.02;4.75;;;;;;;;;;5024860;28;20086;-53
2021/12/26 04:03:56;;;;;;;5.95;4.47;;;;;;;;;;5024337;28;20033;-59
2021/12/26 04:06:22;;;;;;;7.10;4.03;;;;;;;;;;5007828;28;20036;-56
2021/12/26 04:08:47;;;;;;;6.03;4.38;;;;;;;;;;5022633;28;20518;-59
2021/12/26 04:11:13;;;;;;;6.78;3.97;;;;;;;;;;4989500;28;20095;-58
2021/12/26 04:13:39;;;;;;;7.40;4.68;;;;;;;;;;5021890;28;20127;-57
2021/12/26 04:16:04;;;;;;;6.30;4.40;;;;;;;;;;5023170;28;20493;-58
2021/12/26 04:18:30;;;;;;;6.57;4.70;;;;;;;;;;5021573;28;20044;-58
2021/12/26 04:20:55;;;;;;;7.05;4.43;;;;;;;;;;5022589;28;20616;-56
2021/12/26 04:23:20;;;;;;;7.78;4.72;;;;;;;;;;5020940;28;20036;-58
2021/12/26 04:25:46;;;;;;;6.55;4.85;;;;;;;;;;5024646;28;20029;-59
2021/12/26 04:28:17;;;;;;;6.65;4.38;;;;;;;;;;5026054;28;20082;-58
2021/12/26 04:30:42;;;;;;;7.07;4.85;;;;;;;;;;5027097;28;20044;-58
2021/12/26 04:33:08;;;;;;;7.93;4.82;;;;;;;;;;5025600;28;20025;-58
2021/12/26 04:35:33;;;;;;;6.47;4.70;;;;;;;;;;5008294;28;20037;-58
2021/12/26 04:37:59;;;;;;;7.03;4.75;;;;;;;;;;5025318;28;20041;-54
2021/12/26 04:40:24;;;;;;;8.70;4.97;;;;;;;;;;5026351;28;20033;-55
2021/12/26 04:42:50;;;;;;;7.75;4.85;;;;;;;;;;5025391;28;20056;-58
2021/12/26 04:45:16;;;;;;;6.57;4.78;;;;;;;;;;5025743;28;20021;-54
2021/12/26 04:47:44;;;;;;;7.28;5.20;;;;;;;;;;5025201;28;20393;-59
2021/12/26 04:50:16;;;;;;;6.90;5.00;;;;;;;;;;5026041;28;20021;-56
2021/12/26 04:52:43;;;;;;;7.70;4.63;;;;;;;;;;5009808;28;20135;-59
2021/12/26 04:55:10;;;;;;;8.50;5.03;;;;;;;;;;5024576;28;20036;-58
2021/12/26 04:57:36;;;;;;;6.28;4.50;;;;;;;;;;5025603;28;20428;-60
2021/12/26 05:00:04;;;;;;;7.30;5.03;;;;;;;;;;5007129;28;20037;-57
2021/12/26 05:02:32;;;;;;;7.80;4.88;;;;;;;;;;5026906;28;20037;-57
2021/12/26 05:04:57;;;;;;;9.77;5.45;;;;;;;;;;5023758;28;20513;-61
2021/12/26 05:07:23;;;;;;;11.00;5.43;;;;;;;;;;5026895;28;20034;-55
2021/12/26 05:09:48;;;;;;;9.38;5.65;;;;;;;;;;5027075;28;20033;-59
2021/12/26 05:12:14;;;;;;;7.43;5.13;;;;;;;;;;5024404;28;20071;-58
2021/12/26 05:14:39;;;;;;;7.85;5.57;;;;;;;;;;5025992;28;20029;-59
2021/12/26 05:17:05;;;;;;;7.30;5.40;;;;;;;;;;5029034;28;20135;-57
2021/12/26 05:19:30;;;;;;;9.00;5.78;;;;;;;;;;5024843;28;20037;-59
2021/12/26 05:21:56;;;;;;;8.10;5.47;;;;;;;;;;5027581;28;20140;-56
2021/12/26 05:24:21;;;;;;;9.43;5.97;;;;;;;;;;5025639;28;21009;-55
2021/12/26 05:26:47;;;;;;;9.38;6.13;;;;;;;;;;5030443;28;20120;-58
2021/12/26 05:29:12;;;;;;;8.40;5.50;;;;;;;;;;5025821;28;20033;-52
2021/12/26 05:31:37;;;;;;;7.80;5.55;;;;;;;;;;5027914;28;20025;-58
2021/12/26 05:34:03;;;;;;;10.38;5.80;;;;;;;;;;5026955;28;20021;-58
2021/12/26 05:36:28;;;;;;;9.80;6.13;;;;;;;;;;5054155;28;20417;-57
2021/12/26 05:38:55;;;;;;;10.80;6.07;;;;;;;;;;5045554;28;20094;-55
2021/12/26 05:41:21;;;;;;;8.20;5.47;;;;;;;;;;5045991;28;20029;-57
2021/12/26 05:43:46;;;;;;;9.95;5.88;;;;;;;;;;5043774;28;20033;-57
2021/12/26 05:46:12;;;;;;;8.68;5.60;;;;;;;;;;5045111;28;20021;-57
2021/12/26 05:48:37;;;;;;;10.18;5.70;;;;;;;;;;5046406;28;20115;-57
2021/12/26 05:51:03;;;;;;;9.30;5.75;;;;;;;;;;5043475;28;20025;-57
2021/12/26 05:53:28;;;;;;;8.85;5.43;;;;;;;;;;5046945;28;20043;-59
2021/12/26 05:55:54;;;;;;;11.23;6.07;;;;;;;;;;5046534;28;20138;-58
2021/12/26 05:58:19;;;;;;;8.93;5.90;;;;;;;;;;5045297;28;20025;-60
2021/12/26 06:00:44;;;;;;;9.82;5.53;;;;;;;;;;5043269;28;20229;-56
2021/12/26 06:03:10;;;;;;;11.75;6.05;;;;;;;;;;5043751;28;20568;-60
2021/12/26 06:05:35;;;;;;;9.65;6.05;;;;;;;;;;5043951;28;20039;-58
2021/12/26 06:08:00;;;;;;;9.63;6.50;;;;;;;;;;5045266;28;20033;-57
2021/12/26 06:10:26;;;;;;;10.45;5.80;;;;;;;;;;5042740;28;20118;-59
2021/12/26 06:12:52;;;;;;;8.18;5.75;;;;;;;;;;5043727;28;20032;-58
2021/12/26 06:15:18;;;;;;;9.70;5.70;;;;;;;;;;5042040;28;20040;-48
2021/12/26 06:17:43;;;;;;;8.02;5.55;;;;;;;;;;5042442;28;20028;-50
2021/12/26 06:20:14;;;;;;;10.32;5.85;;;;;;;;;;5042814;28;20115;-51
2021/12/26 06:22:43;;;;;;;8.25;6.03;;;;;;;;;;5046096;28;20423;-48
2021/12/26 06:25:10;;;;;;;9.70;6.28;;;;;;;;;;5043590;28;20314;-50
2021/12/26 06:27:36;;;;;;;10.05;6.00;;;;;;;;;;5045928;28;20037;-46
2021/12/26 06:30:04;;;;;;;9.52;6.05;;;;;;;;;;5042422;28;20031;-48
2021/12/26 06:32:30;;;;;;;11.02;5.85;;;;;;;;;;5043191;28;20769;-47
2021/12/26 06:34:55;;;;;;;10.45;6.13;;;;;;;;;;5042727;28;20025;-51
2021/12/26 06:37:21;;;;;;;10.65;5.95;;;;;;;;;;5029392;28;20048;-49
2021/12/26 06:39:46;;;;;;;11.27;6.38;;;;;;;;;;5022102;28;20521;-52
2021/12/26 06:42:12;;;;;;;10.82;6.00;;;;;;;;;;5022965;28;20601;-48
2021/12/26 06:44:37;;;;;;;10.02;6.25;;;;;;;;;;5021816;28;20112;-49
2021/12/26 06:47:04;;;;;;;8.90;6.20;;;;;;;;;;5025010;28;20039;-50
2021/12/26 06:49:30;;;;;;;13.82;6.35;;;;;;;;;;5022710;28;20036;-51
2021/12/26 06:51:55;;;;;;;10.30;6.28;;;;;;;;;;5022598;28;20025;-47
2021/12/26 06:54:21;;;;;;;10.77;6.55;;;;;;;;;;5024867;28;20029;-47
2021/12/26 06:56:46;;;;;;;11.18;6.53;;;;;;;;;;5023661;28;20032;-48
2021/12/26 06:59:12;;;;;;;11.15;6.63;;;;;;;;;;5023359;28;20037;-45
2021/12/26 07:01:37;;;;;;;10.50;6.30;;;;;;;;;;5024395;28;20143;-48
2021/12/26 07:04:03;;;;;;;10.32;6.03;;;;;;;;;;5022163;28;20080;-48
2021/12/26 07:06:28;;;;;;;9.25;6.10;;;;;;;;;;5021842;28;20040;-49
2021/12/26 07:08:54;;;;;;;10.60;6.25;;;;;;;;;;5025432;28;20024;-50
2021/12/26 07:11:19;;;;;;;10.18;5.95;;;;;;;;;;5022425;28;20048;-52
2021/12/26 07:13:45;;;;;;;12.20;6.68;;;;;;;;;;5024132;28;20090;-51
2021/12/26 07:16:10;;;;;;;9.68;6.53;;;;;;;;;;5021817;28;20534;-50
2021/12/26 07:18:36;;;;;;;11.18;6.40;;;;;;;;;;5007090;28;20025;-47
2021/12/26 07:21:02;;;;;;;10.50;6.53;;;;;;;;;;5021657;28;20084;-49
2021/12/26 07:23:27;;;;;;;9.25;5.90;;;;;;;;;;5024644;28;20064;-47
2021/12/26 07:25:53;;;;;;;10.63;6.15;;;;;;;;;;5022867;28;21010;-48
2021/12/26 07:28:18;;;;;;;12.13;6.63;;;;;;;;;;5024446;28;20029;-51
2021/12/26 07:30:43;;;;;;;10.10;6.43;;;;;;;;;;5020846;28;20037;-45
2021/12/26 07:33:09;;;;;;;10.13;6.05;;;;;;;;;;5022990;28;20492;-47
2021/12/26 07:35:35;;;;;;;13.20;6.85;;;;;;;;;;5020572;28;20037;-48
2021/12/26 07:38:00;;;;;;;10.02;6.22;;;;;;;;;;5021763;28;20025;-48
2021/12/26 07:40:27;;;;;;;10.48;5.93;;;;;;;;;;5023445;28;20025;-48
2021/12/26 07:42:53;;;;;;;11.60;6.63;;;;;;;;;;5022700;28;20107;-47
2021/12/26 07:45:18;;;;;;;10.20;5.85;;;;;;;;;;5021949;28;20022;-46
2021/12/26 07:47:44;;;;;;;13.60;6.38;;;;;;;;;;5024228;28;20124;-49
2021/12/26 07:50:10;;;;;;;10.07;5.90;;;;;;;;;;5022796;28;20112;-49
2021/12/26 07:52:40;;;;;;;10.63;6.00;;;;;;;;;;5005906;28;20408;-50
2021/12/26 07:55:10;;;;;;;9.93;6.03;;;;;;;;;;5022623;28;20116;-52
2021/12/26 07:57:36;;;;;;;9.90;6.10;;;;;;;;;;5022816;28;20056;-50
2021/12/26 08:00:02;;;;;;;12.23;6.95;;;;;;;;;;5005653;28;20490;-49
2021/12/26 08:02:27;;;;;;;10.23;6.22;;;;;;;;;;5009154;28;20048;-51
2021/12/26 08:04:53;;;;;;;12.52;6.78;;;;;;;;;;5026040;28;20041;-49
2021/12/26 08:07:18;;;;;;;11.85;6.57;;;;;;;;;;5026116;28;20064;-50
2021/12/26 08:09:44;;;;;;;9.35;6.18;;;;;;;;;;5027202;28;20081;-51
2021/12/26 08:12:09;;;;;;;12.60;6.80;;;;;;;;;;5025553;28;20144;-46
2021/12/26 08:14:35;;;;;;;9.73;6.30;;;;;;;;;;5027696;28;20026;-49
2021/12/26 08:17:01;;;;;;;11.63;6.90;;;;;;;;;;5025523;28;20032;-48
2021/12/26 08:19:26;;;;;;;11.23;6.88;;;;;;;;;;5028911;28;21024;-50
2021/12/26 08:21:52;;;;;;;10.57;6.68;;;;;;;;;;5027733;28;20021;-52
2021/12/26 08:24:18;;;;;;;11.55;6.88;;;;;;;;;;5027149;28;20049;-50
2021/12/26 08:26:49;;;;;;;10.65;6.75;;;;;;;;;;5026055;28;20366;-46
2021/12/26 08:29:15;;;;;;;11.15;6.45;;;;;;;;;;5028330;28;20041;-47
2021/12/26 08:31:41;;;;;;;9.88;6.30;;;;;;;;;;5023729;28;20361;-47
2021/12/26 08:34:06;;;;;;;10.82;6.82;;;;;;;;;;5026816;28;20416;-49
2021/12/26 08:36:32;;;;;;;11.10;6.45;;;;;;;;;;5024038;28;20396;-49
2021/12/26 08:38:58;;;;;;;11.38;6.90;;;;;;;;;;5026457;28;20343;-47
2021/12/26 08:41:24;;;;;;;11.25;6.70;;;;;;;;;;5026767;28;20074;-47
2021/12/26 08:43:51;;;;;;;9.18;5.95;;;;;;;;;;5026776;28;20428;-48
2021/12/26 08:46:16;;;;;;;10.38;6.18;;;;;;;;;;5026230;28;20037;-50
2021/12/26 08:48:42;;;;;;;14.77;6.97;;;;;;;;;;5010277;28;20040;-49
2021/12/26 08:51:07;;;;;;;10.35;6.10;;;;;;;;;;5023937;28;20026;-46
2021/12/26 08:53:32;;;;;;;11.45;6.13;;;;;;;;;;5027046;28;20443;-50
2021/12/26 08:55:59;;;;;;;12.50;6.53;;;;;;;;;;5026765;28;20517;-51
2021/12/26 08:58:25;;;;;;;10.50;6.88;;;;;;;;;;5008368;28;20025;-48
2021/12/26 09:00:50;;;;;;;10.60;6.55;;;;;;;;;;5027500;28;20087;-46
2021/12/26 09:03:16;;;;;;;10.32;6.70;;;;;;;;;;5007251;28;20130;-54
2021/12/26 09:05:42;;;;;;;10.85;6.38;;;;;;;;;;5026948;28;20060;-49
2021/12/26 09:08:10;;;;;;;11.40;7.10;;;;;;;;;;5026463;28;20127;-49
2021/12/26 09:10:39;;;;;;;11.77;6.40;;;;;;;;;;5024692;28;21429;-50
2021/12/26 09:13:05;;;;;;;11.82;6.25;;;;;;;;;;5006697;28;20060;-51
2021/12/26 09:15:31;;;;;;;11.23;6.20;;;;;;;;;;5027414;28;20039;-48
2021/12/26 09:17:57;;;;;;;11.23;6.47;;;;;;;;;;5025770;28;20025;-49
2021/12/26 09:20:23;;;;;;;11.75;6.28;;;;;;;;;;5010081;28;20029;-50
2021/12/26 09:22:49;;;;;;;11.40;6.57;;;;;;;;;;5026767;28;20059;-48
2021/12/26 09:25:14;;;;;;;11.55;6.60;;;;;;;;;;5026265;28;20041;-46
2021/12/26 09:27:40;;;;;;;9.82;6.22;;;;;;;;;;5024840;28;20033;-48
2021/12/26 09:30:06;;;;;;;11.07;6.32;;;;;;;;;;5028927;28;20033;-49
2021/12/26 09:32:33;;;;;;;10.30;6.25;;;;;;;;;;5008085;28;21248;-51
2021/12/26 09:34:58;;;;;;;10.70;6.25;;;;;;;;;;5024443;28;20108;-48
2021/12/26 09:37:24;;;;;;;12.30;6.60;;;;;;;;;;5026306;28;20450;-46
2021/12/26 09:39:50;;;;;;;11.15;6.68;;;;;;;;;;5025117;28;20037;-49
2021/12/26 09:42:16;;;;;;;11.90;6.47;;;;;;;;;;5026967;28;20033;-48
2021/12/26 09:44:41;;;;;;;10.07;6.30;;;;;;;;;;5028708;28;20490;-50
2021/12/26 09:47:08;;;;;;;10.60;6.45;;;;;;;;;;5010398;28;20041;-52
2021/12/26 09:49:34;;;;;;;10.43;6.40;;;;;;;;;;5028976;28;20470;-50
2021/12/26 09:51:59;;;;;;;10.35;6.53;;;;;;;;;;5029826;28;20033;-47
2021/12/26 09:54:25;;;;;;;10.18;6.18;;;;;;;;;;5028236;28;20033;-48
2021/12/26 09:56:50;;;;;;;14.38;6.80;;;;;;;;;;5026721;28;20143;-49
2021/12/26 09:59:22;;;;;;;11.13;6.03;;;;;;;;;;5026164;28;20508;-49
2021/12/26 10:01:52;;;;;;;10.00;6.35;;;;;;;;;;5026402;28;20026;-49
2021/12/26 10:04:19;;;;;;;11.18;6.13;;;;;;;;;;5027286;28;20040;-50
2021/12/26 10:06:47;;;;;;;11.13;6.97;;;;;;;;;;5027259;28;20040;-52
2021/12/26 10:09:13;;;;;;;13.30;7.55;;;;;;;;;;5027541;28;20083;-52
2021/12/26 10:11:45;;;;;;;11.23;6.90;;;;;;;;;;5026912;28;20029;-48
2021/12/26 10:14:17;;;;;;;12.35;6.28;;;;;;;;;;5025822;28;20040;-50
2021/12/26 10:16:49;;;;;;;12.23;7.30;;;;;;;;;;5024702;28;20021;-46
2021/12/26 10:19:14;;;;;;;10.23;6.57;;;;;;;;;;5025141;28;20037;-51
2021/12/26 10:21:44;;;;;;;11.05;6.43;;;;;;;;;;5026920;28;20116;-51
2021/12/26 10:24:19;;;;;;;10.23;6.75;;;;;;;;;;5025397;28;20068;-50
2021/12/26 10:26:57;;;;;;;13.02;7.45;;;;;;;;;;5028327;28;20025;-49
2021/12/26 10:29:43;;;;;;;12.68;7.28;;;;;;;;;;5026970;28;20040;-51
2021/12/26 10:32:12;;;;;;;13.07;7.30;;;;;;;;;;5028589;28;20029;-51
2021/12/26 10:34:45;;;;;;;14.45;7.60;;;;;;;;;;5025747;28;20082;-53
2021/12/26 10:37:12;;;;;;;14.30;7.70;;;;;;;;;;5046900;28;20028;-48
2021/12/26 10:39:44;;;;;;;11.10;6.57;;;;;;;;;;5059784;28;20039;-53
2021/12/26 10:42:13;;;;;;;13.80;7.72;;;;;;;;;;5047897;28;20109;-49
2021/12/26 10:44:46;;;;;;;14.75;7.55;;;;;;;;;;5043812;28;20033;-48
2021/12/26 10:47:17;;;;;;;15.00;8.18;;;;;;;;;;5046263;28;20529;-53
2021/12/26 10:49:54;;;;;;;12.20;7.43;;;;;;;;;;5043744;28;20036;-51
2021/12/26 10:52:24;;;;;;;14.38;8.07;;;;;;;;;;5043598;28;20387;-49
2021/12/26 10:54:59;;;;;;;12.95;7.70;;;;;;;;;;5043442;28;20063;-47
2021/12/26 10:57:36;;;;;;;12.13;7.30;;;;;;;;;;5044417;28;20102;-48
2021/12/26 11:00:10;;;;;;;15.80;7.90;;;;;;;;;;5043561;28;20048;-55
2021/12/26 11:02:37;;;;;;;12.18;7.68;;;;;;;;;;5042263;28;20032;-46
2021/12/26 11:05:21;;;;;;;14.73;7.93;;;;;;;;;;5043798;28;20024;-49
2021/12/26 11:07:56;;;;;;;13.52;7.95;;;;;;;;;;5043798;28;20612;-46
2021/12/26 11:10:26;;;;;;;15.93;8.00;;;;;;;;;;5042400;28;20040;-50
2021/12/26 11:12:58;;;;;;;15.80;8.23;;;;;;;;;;5042483;28;20068;-49
2021/12/26 11:15:27;;;;;;;13.25;7.40;;;;;;;;;;5041739;28;20165;-48
2021/12/26 11:17:59;;;;;;;14.75;7.50;;;;;;;;;;5040684;28;20043;-47
2021/12/26 11:20:38;;;;;;;14.40;8.00;;;;;;;;;;5042548;28;20083;-48
2021/12/26 11:23:09;;;;;;;13.13;8.10;;;;;;;;;;5041192;28;20037;-48
2021/12/26 11:25:56;;;;;;;14.63;8.10;;;;;;;;;;5043568;28;20101;-51
2021/12/26 11:28:28;;;;;;;12.85;7.20;;;;;;;;;;5043403;28;20079;-47
2021/12/26 11:30:56;;;;;;;12.38;7.05;;;;;;;;;;5042413;28;20017;-47
2021/12/26 11:33:22;;;;;;;15.68;8.07;;;;;;;;;;5043750;28;20390;-49
2021/12/26 11:35:49;;;;;;;13.65;7.90;;;;;;;;;;5043377;28;20043;-48
2021/12/26 11:38:19;;;;;;;14.00;7.40;;;;;;;;;;5027593;28;20036;-50
2021/12/26 11:40:46;;;;;;;13.73;7.90;;;;;;;;;;5027153;28;20401;-52
2021/12/26 11:43:14;;;;;;;14.07;7.97;;;;;;;;;;5025553;28;20052;-50
2021/12/26 11:45:48;;;;;;;10.90;6.80;;;;;;;;;;5026523;28;20168;-47
2021/12/26 11:48:51;;;;;;;14.02;7.75;;;;;;;;;;5026416;28;20038;-46
2021/12/26 11:51:19;;;;;;;14.00;7.63;;;;;;;;;;5025711;28;20508;-47
2021/12/26 11:54:06;;;;;;;15.50;7.57;;;;;;;;;;5029213;28;20029;-47
2021/12/26 11:56:45;;;;;;;13.80;7.75;;;;;;;;;;5026788;28;20041;-47
2021/12/26 11:59:28;;;;;;;13.32;7.72;;;;;;;;;;5026198;28;20350;-48
2021/12/26 12:01:54;;;;;;;;;;;;;;;;;;5010916;28;20042;-45
2021/12/26 12:04:23;;;;;;;14.00;7.30;;;;;;;;;;5026079;28;19963;-47
2021/12/26 12:06:50;;;;;;;13.93;8.23;;;;;;;;;;5026158;28;20018;-47
2021/12/26 12:09:34;;;;;;;14.00;7.22;;;;;;;;;;5026021;28;20141;-47
2021/12/26 12:12:05;;;;;;;;;;;;;;;;;;5026559;28;20029;-48
2021/12/26 12:14:45;;;;;;;16.25;7.38;;;;;;;;;;5027308;28;19916;-49
2021/12/26 12:17:25;;;;;;;14.50;7.82;;;;;;;;;;5025266;28;20463;-50
2021/12/26 12:20:20;;;;;;;13.35;7.25;;;;;;;;;;5008354;28;20022;-49
2021/12/26 12:23:04;;;;;;;16.00;8.13;;;;;;;;;;5024272;28;20029;-52
2021/12/26 12:25:49;;;;;;;;;;;;;;;;;;5027585;28;20108;-44
2021/12/26 12:28:16;;;;;;;13.93;7.15;;;;;;;;;;5028287;28;19921;-48
2021/12/26 12:30:48;;;;;;;13.80;8.02;;;;;;;;;;5025149;28;20547;-49
2021/12/26 12:33:25;;;;;;;16.95;7.68;;;;;;;;;;5023994;28;20511;-47
2021/12/26 12:36:18;;;;;;;13.68;7.28;;;;;;;;;;5022832;28;20040;-49
2021/12/26 12:38:47;;;;;;;13.05;7.78;;;;;;;;;;5024620;28;20045;-47
2021/12/26 12:41:27;;;;;;;15.25;7.95;;;;;;;;;;5027145;28;20029;-51
2021/12/26 12:43:54;;;;;;;14.88;7.78;;;;;;;;;;5026808;28;20064;-48
2021/12/26 12:46:21;;;;;;;14.02;8.27;;;;;;;;;;5027173;28;20034;-46
2021/12/26 12:49:01;;;;;;;16.05;8.50;;;;;;;;;;5029000;28;20095;-49
2021/12/26 12:51:27;;;;;;;13.65;8.25;;;;;;;;;;5028051;28;20029;-49
2021/12/26 12:54:04;;;;;;;12.20;7.20;;;;;;;;;;5026823;28;20382;-48
2021/12/26 12:56:36;;;;;;;12.10;7.53;;;;;;;;;;5026365;28;20033;-48
2021/12/26 12:59:16;;;;;;;13.55;7.55;;;;;;;;;;5028842;28;20469;-48
2021/12/26 13:01:58;;;;;;;13.38;7.20;;;;;;;;;;5028687;28;20067;-51
2021/12/26 13:04:27;;;;;;;12.00;7.50;;;;;;;;;;5028936;28;20037;-49
2021/12/26 13:06:55;;;;;;;14.57;8.13;;;;;;;;;;5025666;28;20516;-47
2021/12/26 13:09:21;;;;;;;15.50;8.23;;;;;;;;;;5029276;28;20112;-49
2021/12/26 13:11:52;;;;;;;13.25;7.40;;;;;;;;;;5027204;28;20108;-48
2021/12/26 13:14:45;;;;;;;20.58;7.97;;;;;;;;;;5040568;28;20061;-51
2021/12/26 13:17:16;;;;;;;13.57;7.22;;;;;;;;;;5026650;28;20033;-46
2021/12/26 13:19:43;;;;;;;14.43;7.78;;;;;;;;;;5024751;28;20508;-48
2021/12/26 13:22:08;;;;;;;14.90;7.53;;;;;;;;;;5010341;28;20108;-50
2021/12/26 13:24:39;;;;;;;13.75;8.02;;;;;;;;;;5028068;28;20493;-47
2021/12/26 13:27:06;;;;;;;12.68;7.60;;;;;;;;;;5025208;28;20041;-48
2021/12/26 13:29:32;;;;;;;15.32;7.30;;;;;;;;;;5029284;28;20047;-53
2021/12/26 13:31:58;;;;;;;12.32;7.25;;;;;;;;;;5027078;28;20037;-50
2021/12/26 13:34:24;;;;;;;15.43;7.95;;;;;;;;;;5028490;28;20032;-47
2021/12/26 13:36:50;;;;;;;12.95;8.07;;;;;;;;;;5024460;28;20135;-51
2021/12/26 13:39:24;;;;;;;15.80;8.20;;;;;;;;;;5046563;28;20421;-49
2021/12/26 13:41:50;;;;;;;;;;;;;;;;;;5044241;28;20051;-43
2021/12/26 13:44:17;;;;;;;11.60;6.72;;;;;;;;;;5045639;28;19932;-51
2021/12/26 13:46:43;;;;;;;12.32;6.78;;;;;;;;;;5044850;28;20056;-46
2021/12/26 13:49:11;;;;;;;12.48;7.28;;;;;;;;;;5044527;28;20064;-48
2021/12/26 13:51:38;;;;;;;15.63;7.55;;;;;;;;;;5045710;28;20638;-49
2021/12/26 13:54:19;;;;;;;14.20;8.32;;;;;;;;;;5044959;28;20047;-51
2021/12/26 13:56:47;;;;;;;14.20;7.22;;;;;;;;;;5043036;28;20035;-49
2021/12/26 13:59:37;;;;;;;14.35;7.97;;;;;;;;;;5043376;28;20147;-45
2021/12/26 14:02:17;;;;;;;13.30;7.55;;;;;;;;;;5043591;28;20036;-49
2021/12/26 14:04:49;;;;;;;13.05;8.00;;;;;;;;;;5045019;28;20694;-48
2021/12/26 14:07:25;;;;;;;13.82;7.72;;;;;;;;;;5043441;28;20062;-49
2021/12/26 14:09:55;;;;;;;14.90;8.10;;;;;;;;;;5044342;28;20128;-53
2021/12/26 14:12:44;;;;;;;13.13;7.80;;;;;;;;;;5043288;28;20025;-48
2021/12/26 14:15:29;;;;;;;13.82;7.25;;;;;;;;;;5043961;28;20028;-49
2021/12/26 14:18:15;;;;;;;12.35;7.57;;;;;;;;;;5042723;28;20039;-50
2021/12/26 14:21:08;;;;;;;14.20;7.72;;;;;;;;;;5043422;28;20079;-47
2021/12/26 14:23:40;;;;;;;13.67;7.17;;;;;;;;;;5042585;28;20041;-46
2021/12/26 14:26:08;;;;;;;13.00;8.05;;;;;;;;;;5042834;28;20332;-48
2021/12/26 14:28:48;;;;;;;14.80;8.43;;;;;;;;;;5041613;28;20071;-49
2021/12/26 14:31:34;;;;;;;11.85;7.05;;;;;;;;;;5043479;28;20043;-48
2021/12/26 14:34:02;;;;;;;13.80;7.75;;;;;;;;;;5044712;28;20021;-49
2021/12/26 14:36:28;;;;;;;13.68;7.82;;;;;;;;;;5042870;28;20076;-49
2021/12/26 14:39:02;;;;;;;13.93;7.90;;;;;;;;;;5042349;28;20052;-51
2021/12/26 14:41:36;;;;;;;13.32;8.07;;;;;;;;;;5043531;28;20041;-48
2021/12/26 14:44:19;;;;;;;14.40;8.23;;;;;;;;;;5040459;28;20025;-46
2021/12/26 14:47:14;;;;;;;12.10;7.50;;;;;;;;;;5041282;28;20463;-48
2021/12/26 14:49:45;;;;;;;18.38;8.38;;;;;;;;;;5042289;28;20043;-46
2021/12/26 14:52:16;;;;;;;14.52;8.23;;;;;;;;;;5042875;28;20047;-51